createdAt,value
2019-01-08T00:01:50.322Z,2.24
2019-01-08T00:04:52.325Z,2.20
2019-01-08T00:07:54.316Z,2.26
2019-01-08T00:10:56.298Z,2.32
2019-01-08T00:13:58.289Z,2.43
2019-01-08T00:17:00.358Z,2.56
2019-01-08T00:20:02.343Z,2.67
2019-01-08T00:23:04.269Z,2.75
2019-01-08T00:26:06.265Z,2.83
2019-01-08T00:29:08.179Z,2.90
2019-01-08T00:32:10.121Z,2.98
2019-01-08T00:35:12.048Z,3.09
2019-01-08T00:38:14.098Z,3.08
2019-01-08T00:41:16.112Z,3.03
2019-01-08T00:44:18.083Z,3.09
2019-01-08T00:47:20.044Z,3.14
2019-01-08T00:50:22.112Z,3.16
2019-01-08T00:53:26.699Z,3.15
2019-01-08T00:56:28.660Z,3.29
2019-01-08T00:59:30.598Z,3.35
2019-01-08T01:02:32.584Z,3.40
2019-01-08T01:05:34.507Z,3.40
2019-01-08T01:08:36.494Z,3.43
2019-01-08T01:11:38.462Z,3.46
2019-01-08T01:14:40.780Z,3.43
2019-01-08T01:17:42.801Z,3.49
2019-01-08T01:20:44.792Z,3.48
2019-01-08T01:23:46.722Z,3.49
2019-01-08T01:26:48.707Z,3.53
2019-01-08T01:29:50.663Z,3.55
2019-01-08T01:32:52.636Z,3.59
2019-01-08T01:35:54.566Z,3.66
2019-01-08T01:38:56.559Z,3.69
2019-01-08T01:41:58.578Z,3.78
2019-01-08T01:45:00.550Z,3.80
2019-01-08T01:48:02.509Z,3.78
2019-01-08T01:51:04.489Z,3.81
2019-01-08T01:54:06.530Z,3.88
2019-01-08T01:57:08.537Z,3.94
2019-01-08T02:00:10.650Z,3.93
2019-01-08T02:03:12.613Z,3.95
2019-01-08T02:06:14.532Z,3.98
2019-01-08T02:09:16.484Z,4.04
2019-01-08T02:12:18.435Z,4.04
2019-01-08T02:15:20.485Z,4.13
2019-01-08T02:18:22.467Z,4.14
2019-01-08T02:21:24.473Z,4.08
2019-01-08T02:24:26.382Z,4.13
2019-01-08T02:27:28.351Z,4.13
2019-01-08T02:30:30.308Z,4.13
2019-01-08T02:33:32.379Z,4.19
2019-01-08T02:36:34.427Z,4.21
2019-01-08T02:39:36.807Z,4.24
2019-01-08T02:42:38.787Z,4.26
2019-01-08T02:45:40.714Z,4.30
2019-01-08T02:48:42.588Z,4.28
2019-01-08T02:51:44.562Z,4.29
2019-01-08T02:54:46.682Z,4.31
2019-01-08T02:57:48.632Z,4.32
2019-01-08T03:00:50.546Z,4.36
2019-01-08T03:03:55.503Z,4.36
2019-01-08T03:06:57.526Z,4.37
2019-01-08T03:09:59.504Z,4.40
2019-01-08T03:13:01.458Z,4.44
2019-01-08T03:16:03.420Z,4.38
2019-01-08T03:19:05.418Z,4.40
2019-01-08T03:22:07.382Z,4.40
2019-01-08T03:25:09.308Z,4.41
2019-01-08T03:28:11.261Z,4.49
2019-01-08T03:31:13.182Z,4.53
2019-01-08T03:34:15.186Z,4.52
2019-01-08T03:37:17.189Z,4.45
2019-01-08T03:40:19.233Z,4.39
2019-01-08T03:43:21.217Z,4.33
2019-01-08T03:46:23.278Z,4.38
2019-01-08T03:49:25.255Z,4.44
2019-01-08T03:52:27.230Z,4.32
2019-01-08T03:55:30.631Z,4.29
2019-01-08T03:58:32.590Z,4.26
2019-01-08T04:01:34.518Z,4.24
2019-01-08T04:04:36.515Z,4.16
2019-01-08T04:07:38.486Z,4.09
2019-01-08T04:10:40.479Z,4.07
2019-01-08T04:13:42.486Z,4.04
2019-01-08T04:16:44.629Z,3.99
2019-01-08T04:19:46.664Z,3.95
2019-01-08T04:22:48.612Z,3.96
2019-01-08T04:25:50.849Z,3.91
2019-01-08T04:28:52.842Z,3.82
2019-01-08T04:31:54.785Z,3.72
2019-01-08T04:34:56.756Z,3.69
2019-01-08T04:37:58.695Z,3.69
2019-01-08T04:41:00.672Z,3.69
2019-01-08T04:44:02.624Z,3.71
2019-01-08T04:47:04.630Z,3.67
2019-01-08T04:50:06.529Z,3.64
2019-01-08T04:53:08.467Z,3.62
2019-01-08T04:56:10.553Z,3.60
2019-01-08T04:59:12.543Z,3.64
2019-01-08T05:02:14.503Z,3.70
2019-01-08T05:05:16.488Z,3.73
2019-01-08T05:08:18.489Z,3.70
2019-01-08T05:11:20.554Z,3.67
2019-01-08T05:14:22.532Z,3.62
2019-01-08T05:17:24.585Z,3.68
2019-01-08T05:20:26.649Z,3.69
2019-01-08T05:23:28.643Z,3.70
2019-01-08T05:26:30.580Z,3.73
2019-01-08T05:29:32.560Z,3.70
2019-01-08T05:32:37.313Z,3.68
2019-01-08T05:35:39.397Z,3.69
2019-01-08T05:38:42.473Z,3.71
2019-01-08T05:41:45.785Z,3.74
2019-01-08T05:44:48.289Z,3.75
2019-01-08T05:47:50.310Z,3.76
2019-01-08T05:50:52.251Z,3.78
2019-01-08T05:53:54.290Z,3.82
2019-01-08T05:56:56.365Z,3.93
2019-01-08T05:59:58.388Z,3.87
2019-01-08T06:03:00.363Z,3.85
2019-01-08T06:06:02.306Z,3.86
2019-01-08T06:09:05.040Z,3.83
2019-01-08T06:12:07.100Z,3.81
2019-01-08T06:15:09.084Z,3.79
2019-01-08T06:18:11.017Z,3.85
2019-01-08T06:21:13.028Z,3.86
2019-01-08T06:24:14.984Z,3.94
2019-01-08T06:27:16.928Z,3.97
2019-01-08T06:30:24.776Z,3.89
2019-01-08T06:33:22.777Z,3.93
2019-01-08T06:36:26.255Z,3.98
2019-01-08T06:39:28.629Z,4.02
2019-01-08T06:42:30.638Z,3.98
2019-01-08T06:45:32.655Z,3.99
2019-01-08T06:48:34.669Z,3.94
2019-01-08T06:51:36.558Z,3.92
2019-01-08T06:54:38.592Z,3.87
2019-01-08T06:57:40.596Z,3.77
2019-01-08T07:00:42.586Z,3.70
2019-01-08T07:03:44.554Z,3.63
2019-01-08T07:06:46.514Z,3.63
2019-01-08T07:09:48.443Z,3.58
2019-01-08T07:12:50.438Z,3.54
2019-01-08T07:15:52.474Z,3.54
2019-01-08T07:18:54.468Z,3.52
2019-01-08T07:21:56.488Z,3.51
2019-01-08T07:24:58.498Z,3.57
2019-01-08T07:28:00.468Z,3.56
2019-01-08T07:31:02.658Z,3.66
2019-01-08T07:34:04.639Z,3.66
2019-01-08T07:37:06.567Z,3.74
2019-01-08T07:40:08.532Z,3.72
2019-01-08T07:43:10.603Z,3.76
2019-01-08T07:46:12.544Z,3.81
2019-01-08T07:49:14.600Z,3.91
2019-01-08T07:52:16.494Z,3.90
2019-01-08T07:55:18.471Z,3.97
2019-01-08T07:58:20.590Z,4.05
2019-01-08T08:01:22.910Z,4.08
2019-01-08T08:04:24.835Z,4.17
2019-01-08T08:07:26.835Z,4.21
2019-01-08T08:10:28.843Z,4.25
2019-01-08T08:13:32.500Z,4.25
2019-01-08T08:16:34.891Z,4.34
2019-01-08T08:19:36.830Z,4.30
2019-01-08T08:22:38.813Z,4.29
2019-01-08T08:25:40.806Z,4.34
2019-01-08T08:28:42.720Z,4.29
2019-01-08T08:31:44.716Z,4.34
2019-01-08T08:34:46.632Z,4.38
2019-01-08T08:37:48.662Z,4.43
2019-01-08T08:40:50.595Z,4.45
2019-01-08T08:43:52.559Z,4.52
2019-01-08T08:46:54.529Z,4.46
2019-01-08T08:49:56.598Z,4.37
2019-01-08T08:52:58.567Z,4.27
2019-01-08T08:56:01.057Z,4.23
2019-01-08T08:59:03.072Z,4.19
2019-01-08T09:02:05.144Z,4.17
2019-01-08T09:05:07.093Z,4.11
2019-01-08T09:08:09.026Z,4.21
2019-01-08T09:11:10.936Z,4.69
2019-01-08T09:14:12.904Z,5.31
2019-01-08T09:17:14.982Z,5.39
2019-01-08T09:20:17.204Z,5.31
2019-01-08T09:23:19.233Z,5.82
2019-01-08T09:26:21.256Z,6.25
2019-01-08T09:29:23.224Z,6.11
2019-01-08T09:32:25.738Z,5.99
2019-01-08T09:35:27.698Z,5.81
2019-01-08T09:38:29.657Z,5.72
2019-01-08T09:41:31.551Z,5.71
2019-01-08T09:44:33.557Z,5.73
2019-01-08T09:47:35.567Z,5.74
2019-01-08T09:50:37.591Z,5.86
2019-01-08T09:53:39.499Z,5.93
2019-01-08T09:56:41.465Z,6.05
2019-01-08T09:59:43.749Z,6.14
2019-01-08T10:02:45.790Z,6.01
2019-01-08T10:05:47.658Z,6.19
2019-01-08T10:08:49.586Z,6.53
2019-01-08T10:11:51.525Z,6.69
2019-01-08T10:14:53.497Z,6.80
2019-01-08T10:17:55.493Z,6.82
2019-01-08T10:20:57.594Z,6.85
2019-01-08T10:23:59.696Z,6.80
2019-01-08T10:27:01.637Z,6.70
2019-01-08T10:30:07.266Z,6.72
2019-01-08T10:33:09.238Z,6.73
2019-01-08T10:36:11.155Z,6.73
2019-01-08T10:39:13.163Z,6.85
2019-01-08T10:42:15.011Z,7.15
2019-01-08T10:45:16.953Z,7.54
2019-01-08T10:48:18.879Z,7.73
2019-01-08T10:51:20.876Z,7.94
2019-01-08T10:54:22.816Z,7.99
2019-01-08T10:57:24.805Z,7.97
2019-01-08T11:00:26.883Z,7.95
2019-01-08T11:03:28.935Z,7.77
2019-01-08T11:06:30.908Z,7.64
2019-01-08T11:09:32.820Z,7.57
2019-01-08T11:12:34.755Z,7.54
2019-01-08T11:15:36.716Z,7.48
2019-01-08T11:18:38.707Z,7.40
2019-01-08T11:21:40.700Z,7.35
2019-01-08T11:24:42.770Z,7.46
2019-01-08T11:27:44.749Z,7.57
2019-01-08T11:30:46.676Z,7.72
2019-01-08T11:33:48.652Z,7.71
2019-01-08T11:36:50.577Z,7.73
2019-01-08T11:39:52.502Z,7.74
2019-01-08T11:42:54.425Z,7.71
2019-01-08T11:45:56.392Z,7.65
2019-01-08T11:48:58.345Z,7.72
2019-01-08T11:52:00.311Z,7.78
2019-01-08T11:55:02.326Z,7.82
2019-01-08T11:58:04.340Z,7.77
2019-01-08T12:01:06.275Z,7.79
2019-01-08T12:04:08.242Z,7.67
2019-01-08T12:07:10.157Z,7.55
2019-01-08T12:10:12.358Z,7.46
2019-01-08T12:13:14.276Z,7.24
2019-01-08T12:16:16.263Z,7.12
2019-01-08T12:19:18.266Z,6.96
2019-01-08T12:22:20.190Z,6.85
2019-01-08T12:25:22.178Z,6.84
2019-01-08T12:28:24.200Z,6.85
2019-01-08T12:31:26.106Z,6.87
2019-01-08T12:34:28.055Z,6.91
2019-01-08T12:37:29.955Z,6.96
2019-01-08T12:40:31.891Z,7.12
2019-01-08T12:43:33.771Z,7.16
2019-01-08T12:46:35.697Z,7.26
2019-01-08T12:49:37.656Z,7.41
2019-01-08T12:52:39.569Z,7.56
2019-01-08T12:55:41.487Z,7.60
2019-01-08T12:58:43.409Z,7.51
2019-01-08T13:01:45.335Z,7.41
2019-01-08T13:04:47.417Z,7.35
2019-01-08T13:07:49.288Z,7.34
2019-01-08T13:10:51.253Z,7.35
2019-01-08T13:13:53.153Z,7.33
2019-01-08T13:16:55.136Z,7.28
2019-01-08T13:19:57.083Z,7.25
2019-01-08T13:22:59.028Z,7.25
2019-01-08T13:26:01.050Z,7.15
2019-01-08T13:29:02.995Z,7.06
2019-01-08T13:32:04.985Z,7.02
2019-01-08T13:35:07.055Z,7.12
2019-01-08T13:38:08.999Z,7.27
2019-01-08T13:41:10.985Z,7.41
2019-01-08T13:44:12.866Z,7.46
2019-01-08T13:47:14.971Z,7.42
2019-01-08T13:50:18.038Z,7.53
2019-01-08T13:53:20.030Z,7.46
2019-01-08T13:56:21.922Z,7.50
2019-01-08T13:59:24.237Z,7.54
2019-01-08T14:02:31.826Z,7.54
2019-01-08T14:05:30.377Z,7.38
2019-01-08T14:08:32.472Z,7.32
2019-01-08T14:11:34.436Z,7.24
2019-01-08T14:14:36.363Z,7.12
2019-01-08T14:17:38.315Z,6.99
2019-01-08T14:20:40.282Z,6.81
2019-01-08T14:23:42.235Z,6.60
2019-01-08T14:26:44.441Z,6.43
2019-01-08T14:29:46.511Z,6.35
2019-01-08T14:32:48.432Z,6.25
2019-01-08T14:35:50.380Z,6.22
2019-01-08T14:38:52.291Z,6.28
2019-01-08T14:41:54.292Z,6.28
2019-01-08T14:44:56.248Z,6.28
2019-01-08T14:47:58.263Z,6.31
2019-01-08T14:51:00.292Z,6.27
2019-01-08T14:54:02.232Z,6.22
2019-01-08T14:57:04.110Z,6.26
2019-01-08T15:00:08.474Z,6.18
2019-01-08T15:03:10.411Z,6.16
2019-01-08T15:06:12.922Z,6.13
2019-01-08T15:09:14.873Z,5.96
2019-01-08T15:12:16.826Z,5.93
2019-01-08T15:15:18.760Z,5.96
2019-01-08T15:18:20.751Z,5.97
2019-01-08T15:21:22.685Z,5.97
2019-01-08T15:24:24.838Z,5.97
2019-01-08T15:27:26.886Z,5.92
2019-01-08T15:30:28.866Z,5.87
2019-01-08T15:33:30.766Z,5.71
2019-01-08T15:36:32.806Z,5.68
2019-01-08T15:39:34.711Z,5.60
2019-01-08T15:42:36.686Z,5.55
2019-01-08T15:45:38.602Z,5.51
2019-01-08T15:48:40.586Z,5.46
2019-01-08T15:51:42.551Z,5.44
2019-01-08T15:54:44.516Z,5.46
2019-01-08T15:57:46.389Z,5.43
2019-01-08T16:00:48.330Z,5.36
2019-01-08T16:03:50.302Z,5.37
2019-01-08T16:06:53.916Z,5.44
2019-01-08T16:09:55.832Z,5.48
2019-01-08T16:12:57.996Z,5.50
2019-01-08T16:15:59.932Z,5.50
2019-01-08T16:19:01.965Z,5.44
2019-01-08T16:22:03.909Z,5.47
2019-01-08T16:25:05.850Z,5.42
2019-01-08T16:28:07.888Z,5.39
2019-01-08T16:31:09.890Z,5.38
2019-01-08T16:34:11.838Z,5.35
2019-01-08T16:37:13.833Z,5.28
2019-01-08T16:40:16.906Z,5.28
2019-01-08T16:43:18.907Z,5.28
2019-01-08T16:46:20.823Z,5.34
2019-01-08T16:49:22.869Z,5.42
2019-01-08T16:52:24.906Z,5.42
2019-01-08T16:55:26.920Z,5.36
2019-01-08T16:58:28.875Z,5.26
2019-01-08T17:01:30.923Z,5.33
2019-01-08T17:04:32.822Z,5.35
2019-01-08T17:07:35.134Z,5.31
2019-01-08T17:10:37.758Z,5.37
2019-01-08T17:13:39.867Z,5.43
2019-01-08T17:16:41.901Z,5.41
2019-01-08T17:19:43.875Z,5.43
2019-01-08T17:22:45.904Z,5.41
2019-01-08T17:25:48.344Z,5.41
2019-01-08T17:28:50.467Z,5.41
2019-01-08T17:31:52.550Z,5.37
2019-01-08T17:34:54.463Z,5.36
2019-01-08T17:37:56.427Z,5.40
2019-01-08T17:40:58.403Z,5.39
2019-01-08T17:44:00.477Z,5.33
2019-01-08T17:47:02.557Z,5.43
2019-01-08T17:50:05.241Z,5.45
2019-01-08T17:53:10.024Z,5.43
2019-01-08T17:56:12.128Z,5.37
2019-01-08T17:59:14.029Z,5.38
2019-01-08T18:02:15.994Z,5.44
2019-01-08T18:05:18.066Z,5.44
2019-01-08T18:08:20.557Z,5.40
2019-01-08T18:11:23.970Z,5.33
2019-01-08T18:14:25.902Z,5.35
2019-01-08T18:17:27.817Z,5.27
2019-01-08T18:20:29.790Z,5.25
2019-01-08T18:23:31.828Z,5.32
2019-01-08T18:26:34.388Z,5.40
2019-01-08T18:29:36.631Z,5.42
2019-01-08T18:32:38.731Z,5.46
2019-01-08T18:35:42.448Z,5.47
2019-01-08T18:38:44.370Z,5.47
2019-01-08T18:41:48.298Z,5.50
2019-01-08T18:44:54.225Z,5.59
2019-01-08T18:47:56.344Z,5.59
2019-01-08T18:50:59.782Z,5.68
2019-01-08T18:54:02.288Z,5.66
2019-01-08T18:57:04.265Z,5.68
2019-01-08T19:00:08.201Z,5.69
2019-01-08T19:03:10.197Z,5.73
2019-01-08T19:06:15.020Z,5.77
2019-01-08T19:09:29.617Z,5.78
2019-01-08T19:12:31.577Z,5.80
2019-01-08T19:15:35.880Z,5.80
2019-01-08T19:18:37.814Z,5.88
2019-01-08T19:21:39.833Z,5.93
2019-01-08T19:24:43.624Z,6.01
2019-01-08T19:27:47.407Z,6.04
2019-01-08T19:30:51.674Z,6.02
2019-01-08T19:33:54.124Z,6.06
2019-01-08T19:36:57.259Z,6.06
2019-01-08T19:40:01.293Z,6.10
2019-01-08T19:43:06.623Z,6.16
2019-01-08T19:46:09.977Z,6.18
2019-01-08T19:49:13.891Z,6.26
2019-01-08T19:52:16.563Z,6.20
2019-01-08T19:55:18.594Z,6.19
2019-01-08T19:58:20.700Z,6.20
2019-01-08T20:01:22.639Z,6.24
2019-01-08T20:04:24.622Z,6.31
2019-01-08T20:07:27.644Z,6.32
2019-01-08T20:10:29.793Z,6.32
2019-01-08T20:13:31.805Z,6.36
2019-01-08T20:16:33.789Z,6.31
2019-01-08T20:19:35.736Z,6.32
2019-01-08T20:22:38.183Z,6.38
2019-01-08T20:25:40.207Z,6.39
2019-01-08T20:28:42.196Z,6.33
2019-01-08T20:31:44.681Z,6.30
2019-01-08T20:34:48.667Z,6.32
2019-01-08T20:37:51.447Z,6.35
2019-01-08T20:40:53.441Z,6.30
2019-01-08T20:43:55.791Z,6.36
2019-01-08T20:46:58.460Z,6.37
2019-01-08T20:50:00.427Z,6.35
2019-01-08T20:53:02.759Z,6.28
2019-01-08T20:56:04.817Z,6.32
2019-01-08T20:59:07.112Z,6.31
2019-01-08T21:02:09.102Z,6.29
2019-01-08T21:05:11.117Z,6.37
2019-01-08T21:08:13.102Z,6.34
2019-01-08T21:11:17.057Z,6.36
2019-01-08T21:14:19.002Z,6.38
2019-01-08T21:17:24.514Z,6.36
2019-01-08T21:20:26.518Z,6.39
2019-01-08T21:23:28.462Z,6.38
2019-01-08T21:26:30.458Z,6.34
2019-01-08T21:29:32.463Z,6.32
2019-01-08T21:32:34.462Z,6.27
2019-01-08T21:35:37.800Z,6.26
2019-01-08T21:38:42.218Z,6.18
2019-01-08T21:41:44.298Z,6.15
2019-01-08T21:44:46.309Z,6.13
2019-01-08T21:47:48.491Z,6.11
2019-01-08T21:50:50.427Z,6.05
2019-01-08T21:53:52.434Z,5.97
2019-01-08T21:56:54.383Z,6.04
2019-01-08T21:59:56.316Z,6.02
2019-01-08T22:02:59.314Z,5.99
2019-01-08T22:06:01.322Z,6.00
2019-01-08T22:09:04.873Z,5.94
2019-01-08T22:12:06.942Z,5.90
2019-01-08T22:15:08.852Z,5.93
2019-01-08T22:18:10.838Z,5.94
2019-01-08T22:21:12.738Z,5.88
2019-01-08T22:24:14.774Z,5.85
2019-01-08T22:27:16.753Z,5.83
2019-01-08T22:30:18.729Z,5.77
2019-01-08T22:33:20.790Z,5.61
2019-01-08T22:36:22.809Z,5.57
2019-01-08T22:39:24.763Z,5.54
2019-01-08T22:42:26.722Z,5.46
2019-01-08T22:45:28.678Z,5.38
2019-01-08T22:48:30.875Z,5.38
2019-01-08T22:51:32.797Z,5.35
2019-01-08T22:54:34.752Z,5.26
2019-01-08T22:57:36.864Z,5.23
2019-01-08T23:00:49.487Z,5.19
2019-01-08T23:04:01.014Z,5.14
2019-01-08T23:07:03.178Z,4.99
2019-01-08T23:10:05.645Z,4.98
2019-01-08T23:13:09.269Z,4.90
2019-01-08T23:16:11.267Z,4.92
2019-01-08T23:19:14.552Z,4.95
2019-01-08T23:22:16.557Z,4.99
2019-01-08T23:25:18.546Z,4.93
2019-01-08T23:28:20.536Z,4.90
2019-01-08T23:31:22.495Z,4.89
2019-01-08T23:34:24.491Z,4.86
2019-01-08T23:37:26.504Z,4.82
2019-01-08T23:40:28.433Z,4.76
2019-01-08T23:43:30.437Z,4.78
2019-01-08T23:46:32.324Z,4.69
2019-01-08T23:49:35.660Z,4.70
2019-01-08T23:52:56.561Z,4.66
2019-01-08T23:55:59.954Z,4.57
2019-01-08T23:59:02.019Z,4.49
